Time;durP1;ratioP1;P1;durP2;ratioP2;P2;SDS_P1;SDS_P2;PMS_P1;PMS_P2;Temp;Humidity;BMP_temperature;BMP_pressure;BME280_temperature;BME280_humidity;BME280_pressure;Samples;Min_cycle;Max_cycle;Signal;HPM_P1;HPM_P2
2021/09/26 00:17:07;;;;;;;9.20;4.50;;;;;;;;;;4782286;28;20162;-62
2021/09/26 00:19:33;;;;;;;9.02;4.18;;;;;;;;;;4151451;34;20510;-66
2021/09/26 00:21:59;;;;;;;8.77;4.10;;;;;;;;;;4138702;34;20123;-65
2021/09/26 00:24:25;;;;;;;6.72;3.90;;;;;;;;;;4138765;34;20106;-67
2021/09/26 00:26:51;;;;;;;9.10;4.35;;;;;;;;;;4127619;34;20207;-66
2021/09/26 00:29:17;;;;;;;6.30;3.25;;;;;;;;;;4116382;34;20451;-65
2021/09/26 00:31:44;;;;;;;9.27;3.80;;;;;;;;;;4116165;34;20158;-66
2021/09/26 00:34:11;;;;;;;11.82;4.78;;;;;;;;;;4127738;34;20518;-67
2021/09/26 00:36:37;;;;;;;10.80;3.83;;;;;;;;;;4138614;34;20519;-66
2021/09/26 00:39:04;;;;;;;8.57;4.10;;;;;;;;;;4116457;34;20092;-66
2021/09/26 00:41:31;;;;;;;10.68;4.28;;;;;;;;;;4116656;34;20138;-66
2021/09/26 00:43:57;;;;;;;6.12;3.42;;;;;;;;;;4127358;34;20485;-66
2021/09/26 00:46:23;;;;;;;11.68;4.18;;;;;;;;;;4137812;34;20123;-66
2021/09/26 00:48:50;;;;;;;7.97;4.07;;;;;;;;;;4127410;34;20506;-66
2021/09/26 00:51:19;;;;;;;7.20;3.78;;;;;;;;;;4116150;34;20227;-66
2021/09/26 00:53:46;;;;;;;9.90;3.92;;;;;;;;;;4116336;34;20134;-65
2021/09/26 00:56:12;;;;;;;10.50;4.37;;;;;;;;;;4116474;34;20447;-67
2021/09/26 00:58:39;;;;;;;8.88;4.03;;;;;;;;;;4116362;34;20127;-66
2021/09/26 01:01:05;;;;;;;5.87;3.70;;;;;;;;;;4127205;34;20126;-65
2021/09/26 01:03:32;;;;;;;8.05;3.70;;;;;;;;;;4127157;34;20106;-65
2021/09/26 01:06:03;;;;;;;8.27;3.65;;;;;;;;;;4127482;34;20142;-65
2021/09/26 01:08:59;;;;;;;6.65;3.70;;;;;;;;;;4116102;34;20138;-66
2021/09/26 01:11:43;;;;;;;8.32;3.67;;;;;;;;;;4140429;34;20227;-66
2021/09/26 01:14:35;;;;;;;7.93;3.25;;;;;;;;;;4127235;34;20130;-65
2021/09/26 01:17:08;;;;;;;8.30;3.85;;;;;;;;;;4125586;34;20190;-67
2021/09/26 01:19:49;;;;;;;8.18;3.80;;;;;;;;;;4127004;34;20119;-66
2021/09/26 01:22:52;;;;;;;15.50;4.55;;;;;;;;;;4138139;34;20127;-66
2021/09/26 01:25:51;;;;;;;7.72;3.78;;;;;;;;;;4118465;34;20111;-67
2021/09/26 01:28:26;;;;;;;9.05;3.50;;;;;;;;;;4116058;34;20145;-65
2021/09/26 01:31:11;;;;;;;7.28;3.30;;;;;;;;;;4126977;34;20111;-65
2021/09/26 01:33:55;;;;;;;12.15;4.15;;;;;;;;;;4126915;34;20616;-65
2021/09/26 01:36:29;;;;;;;13.70;3.60;;;;;;;;;;4117277;34;20200;-66
2021/09/26 01:39:03;;;;;;;9.65;3.53;;;;;;;;;;4138181;34;20125;-66
2021/09/26 01:41:52;;;;;;;13.55;3.70;;;;;;;;;;4127109;34;20106;-66
2021/09/26 01:44:43;;;;;;;8.55;3.78;;;;;;;;;;4119580;34;20177;-66
2021/09/26 01:47:10;;;;;;;11.02;3.72;;;;;;;;;;4133113;34;20614;-65
2021/09/26 01:49:41;;;;;;;7.70;3.40;;;;;;;;;;4137909;34;20104;-67
2021/09/26 01:52:19;;;;;;;6.12;3.00;;;;;;;;;;4115582;34;20188;-66
2021/09/26 01:54:47;;;;;;;6.93;3.60;;;;;;;;;;4126769;34;20537;-65
2021/09/26 01:57:16;;;;;;;13.60;3.58;;;;;;;;;;4126270;34;20130;-67
2021/09/26 01:59:42;;;;;;;6.72;3.60;;;;;;;;;;4126703;34;20153;-67
2021/09/26 02:02:08;;;;;;;9.32;3.85;;;;;;;;;;4126931;34;20110;-65
2021/09/26 02:04:34;;;;;;;5.65;3.45;;;;;;;;;;4138030;34;20495;-66
2021/09/26 02:07:00;;;;;;;5.57;3.20;;;;;;;;;;4126427;34;20109;-65
2021/09/26 02:09:27;;;;;;;7.50;3.90;;;;;;;;;;4137853;34;20107;-66
2021/09/26 02:11:54;;;;;;;9.25;3.65;;;;;;;;;;4126861;34;20099;-67
2021/09/26 02:14:20;;;;;;;6.87;3.45;;;;;;;;;;4115813;34;20356;-67
2021/09/26 02:16:46;;;;;;;12.27;3.58;;;;;;;;;;4126590;34;20135;-65
2021/09/26 02:19:13;;;;;;;8.30;4.20;;;;;;;;;;4115625;34;20128;-66
2021/09/26 02:21:40;;;;;;;10.18;3.55;;;;;;;;;;4126668;34;20121;-66
2021/09/26 02:24:10;;;;;;;6.32;3.20;;;;;;;;;;4116539;34;20511;-67
2021/09/26 02:26:37;;;;;;;10.63;3.47;;;;;;;;;;4126478;34;20164;-66
2021/09/26 02:29:03;;;;;;;5.93;3.45;;;;;;;;;;4137846;34;20118;-66
2021/09/26 02:31:30;;;;;;;7.20;3.30;;;;;;;;;;4115741;34;20106;-66
2021/09/26 02:33:56;;;;;;;11.10;3.90;;;;;;;;;;4115280;34;20115;-67
2021/09/26 02:36:22;;;;;;;5.60;3.78;;;;;;;;;;4126729;34;20541;-66
2021/09/26 02:38:48;;;;;;;6.40;3.33;;;;;;;;;;4126293;34;20194;-66
2021/09/26 02:41:22;;;;;;;5.15;3.22;;;;;;;;;;4126431;34;20266;-66
2021/09/26 02:44:10;;;;;;;6.97;3.65;;;;;;;;;;4126439;34;20511;-68
2021/09/26 02:46:39;;;;;;;8.32;3.70;;;;;;;;;;4137811;34;20537;-66
2021/09/26 02:49:05;;;;;;;5.65;3.40;;;;;;;;;;4115709;34;20204;-65
2021/09/26 02:51:32;;;;;;;6.57;3.97;;;;;;;;;;4115433;34;20161;-67
2021/09/26 02:53:59;;;;;;;6.72;3.78;;;;;;;;;;4115451;34;20107;-66
2021/09/26 02:56:26;;;;;;;9.40;3.50;;;;;;;;;;4137531;34;20533;-67
2021/09/26 02:58:54;;;;;;;8.85;3.55;;;;;;;;;;4115606;34;20121;-67
2021/09/26 03:01:21;;;;;;;9.40;4.05;;;;;;;;;;4126274;34;20091;-67
2021/09/26 03:03:47;;;;;;;8.80;3.40;;;;;;;;;;4137303;34;20458;-65
2021/09/26 03:06:14;;;;;;;10.50;4.53;;;;;;;;;;4115188;34;20127;-65
2021/09/26 03:08:40;;;;;;;7.43;3.47;;;;;;;;;;4126665;34;20111;-66
2021/09/26 03:11:06;;;;;;;5.55;3.25;;;;;;;;;;4117013;34;20078;-66
2021/09/26 03:13:32;;;;;;;9.48;3.97;;;;;;;;;;4128182;34;20130;-65
2021/09/26 03:15:58;;;;;;;12.75;4.03;;;;;;;;;;4128124;34;20523;-67
2021/09/26 03:18:25;;;;;;;5.62;3.50;;;;;;;;;;4127964;34;20125;-66
2021/09/26 03:20:51;;;;;;;5.60;3.47;;;;;;;;;;4128100;34;20096;-68
2021/09/26 03:23:17;;;;;;;6.68;3.40;;;;;;;;;;4128316;34;20191;-66
2021/09/26 03:25:44;;;;;;;8.57;3.97;;;;;;;;;;4117143;34;20104;-65
2021/09/26 03:28:11;;;;;;;8.85;3.70;;;;;;;;;;4117303;34;20120;-67
2021/09/26 03:30:38;;;;;;;8.85;4.35;;;;;;;;;;4117181;34;20127;-66
2021/09/26 03:33:04;;;;;;;8.18;3.55;;;;;;;;;;4139026;34;20135;-66
2021/09/26 03:35:31;;;;;;;13.50;3.80;;;;;;;;;;4116938;34;20207;-66
2021/09/26 03:37:57;;;;;;;12.07;3.67;;;;;;;;;;4116857;34;20833;-66
2021/09/26 03:40:24;;;;;;;6.87;3.50;;;;;;;;;;4127893;34;20606;-67
2021/09/26 03:42:51;;;;;;;5.15;3.58;;;;;;;;;;4139057;34;20107;-66
2021/09/26 03:45:17;;;;;;;9.93;3.55;;;;;;;;;;4106011;34;20095;-65
2021/09/26 03:47:45;;;;;;;16.90;5.28;;;;;;;;;;4117014;34;20131;-66
2021/09/26 03:50:11;;;;;;;8.75;4.07;;;;;;;;;;4127972;34;20113;-65
2021/09/26 03:52:38;;;;;;;10.98;4.93;;;;;;;;;;4127640;34;20122;-67
2021/09/26 03:55:05;;;;;;;8.75;3.92;;;;;;;;;;4127958;34;20319;-68
2021/09/26 03:57:31;;;;;;;8.45;4.00;;;;;;;;;;4138969;34;20083;-65
2021/09/26 03:59:59;;;;;;;10.07;4.70;;;;;;;;;;4116973;34;20725;-67
2021/09/26 04:02:26;;;;;;;24.67;12.90;;;;;;;;;;4116773;34;20119;-65
2021/09/26 04:04:52;;;;;;;13.27;9.35;;;;;;;;;;4139022;34;20517;-66
2021/09/26 04:07:19;;;;;;;13.82;8.35;;;;;;;;;;4116723;34;20139;-67
2021/09/26 04:09:45;;;;;;;8.05;5.30;;;;;;;;;;4116728;34;20138;-66
2021/09/26 04:12:12;;;;;;;5.35;4.30;;;;;;;;;;4116596;34;20103;-65
2021/09/26 04:14:38;;;;;;;10.48;4.10;;;;;;;;;;4138930;34;20145;-67
2021/09/26 04:17:05;;;;;;;11.43;3.87;;;;;;;;;;4138225;34;20099;-65
2021/09/26 04:19:31;;;;;;;6.87;4.03;;;;;;;;;;4125172;34;20215;-65
2021/09/26 04:21:58;;;;;;;6.55;4.15;;;;;;;;;;4114359;34;20330;-66
2021/09/26 04:24:25;;;;;;;7.87;3.78;;;;;;;;;;4114192;34;20542;-67
2021/09/26 04:26:51;;;;;;;8.40;4.07;;;;;;;;;;4103365;34;20155;-66
2021/09/26 04:29:18;;;;;;;5.97;4.07;;;;;;;;;;4125583;34;20514;-66
2021/09/26 04:31:44;;;;;;;8.77;3.50;;;;;;;;;;4125289;34;20451;-65
2021/09/26 04:34:10;;;;;;;7.62;4.28;;;;;;;;;;4103038;34;20136;-66
2021/09/26 04:36:37;;;;;;;13.40;4.25;;;;;;;;;;4125465;34;20111;-65
2021/09/26 04:39:04;;;;;;;25.20;4.97;;;;;;;;;;4114121;34;20235;-66
2021/09/26 04:41:30;;;;;;;10.05;4.60;;;;;;;;;;4125297;34;20166;-65
2021/09/26 04:43:56;;;;;;;5.80;4.35;;;;;;;;;;4125039;34;20100;-66
2021/09/26 04:46:22;;;;;;;15.95;6.72;;;;;;;;;;4103219;34;20112;-65
2021/09/26 04:48:49;;;;;;;14.65;4.57;;;;;;;;;;4125240;34;20095;-68
2021/09/26 04:51:15;;;;;;;15.32;6.10;;;;;;;;;;4114147;34;20150;-66
2021/09/26 04:53:42;;;;;;;9.80;6.10;;;;;;;;;;4103264;34;20104;-67
2021/09/26 04:56:09;;;;;;;7.55;5.82;;;;;;;;;;4124951;34;20115;-67
2021/09/26 04:58:36;;;;;;;22.85;5.97;;;;;;;;;;4114098;34;20115;-68
2021/09/26 05:01:02;;;;;;;18.55;5.70;;;;;;;;;;4103198;34;20098;-67
2021/09/26 05:03:28;;;;;;;9.43;6.70;;;;;;;;;;4114081;34;20091;-66
2021/09/26 05:05:55;;;;;;;9.57;5.60;;;;;;;;;;4113712;34;20096;-65
2021/09/26 05:08:21;;;;;;;11.32;5.82;;;;;;;;;;4113920;34;20531;-67
2021/09/26 05:10:47;;;;;;;12.68;7.97;;;;;;;;;;4113826;34;20198;-64
2021/09/26 05:13:14;;;;;;;17.67;9.02;;;;;;;;;;4113729;34;20112;-67
2021/09/26 05:15:41;;;;;;;20.17;9.90;;;;;;;;;;4103229;34;20526;-67
2021/09/26 05:18:08;;;;;;;13.18;8.35;;;;;;;;;;4113785;34;20516;-68
2021/09/26 05:20:34;;;;;;;19.67;10.48;;;;;;;;;;4102829;34;20104;-66
2021/09/26 05:23:00;;;;;;;22.85;14.02;;;;;;;;;;4113874;34;20131;-66
2021/09/26 05:25:28;;;;;;;20.27;10.15;;;;;;;;;;4114231;34;20114;-66
2021/09/26 05:27:54;;;;;;;18.17;9.00;;;;;;;;;;4102863;34;20115;-66
2021/09/26 05:30:21;;;;;;;25.70;11.38;;;;;;;;;;4103011;34;20130;-67
2021/09/26 05:32:47;;;;;;;18.70;9.77;;;;;;;;;;4113095;34;20104;-66
2021/09/26 05:35:13;;;;;;;12.30;8.93;;;;;;;;;;4124979;34;20210;-65
2021/09/26 05:37:40;;;;;;;11.60;7.43;;;;;;;;;;4135889;34;20645;-67
2021/09/26 05:40:08;;;;;;;17.85;8.77;;;;;;;;;;4102690;34;20126;-67
2021/09/26 05:42:35;;;;;;;12.80;7.97;;;;;;;;;;4124797;34;20208;-65
2021/09/26 05:45:01;;;;;;;20.05;8.73;;;;;;;;;;4124400;34;20266;-67
2021/09/26 05:47:27;;;;;;;10.00;7.10;;;;;;;;;;4102598;34;20210;-68
2021/09/26 05:49:54;;;;;;;10.50;7.50;;;;;;;;;;4102209;34;20194;-67
2021/09/26 05:52:20;;;;;;;9.77;6.50;;;;;;;;;;4113546;34;20223;-65
2021/09/26 05:54:46;;;;;;;12.55;7.32;;;;;;;;;;4124724;34;20119;-66
2021/09/26 05:57:12;;;;;;;11.40;6.80;;;;;;;;;;4124395;34;20138;-65
2021/09/26 05:59:38;;;;;;;9.77;7.30;;;;;;;;;;4113508;34;20145;-66
2021/09/26 06:02:10;;;;;;;15.98;8.35;;;;;;;;;;4113094;34;20224;-68
2021/09/26 06:04:40;;;;;;;9.80;7.43;;;;;;;;;;4102814;34;20206;-66
2021/09/26 06:07:06;;;;;;;11.88;7.25;;;;;;;;;;4113541;34;20119;-67
2021/09/26 06:09:34;;;;;;;12.20;6.78;;;;;;;;;;4124667;34;20117;-67
2021/09/26 06:12:00;;;;;;;11.38;7.18;;;;;;;;;;4113171;34;20564;-67
2021/09/26 06:14:27;;;;;;;12.70;6.95;;;;;;;;;;4113606;34;20531;-66
2021/09/26 06:16:54;;;;;;;9.90;6.95;;;;;;;;;;4113328;34;20200;-66
2021/09/26 06:19:20;;;;;;;9.80;7.00;;;;;;;;;;4113514;34;20092;-66
2021/09/26 06:21:46;;;;;;;10.73;6.90;;;;;;;;;;4113183;34;20111;-65
2021/09/26 06:24:12;;;;;;;10.50;7.80;;;;;;;;;;4102369;34;20628;-66
2021/09/26 06:26:38;;;;;;;15.32;7.00;;;;;;;;;;4113304;34;20195;-66
2021/09/26 06:29:04;;;;;;;10.73;6.85;;;;;;;;;;4124342;34;20619;-67
2021/09/26 06:31:31;;;;;;;23.05;10.23;;;;;;;;;;4134943;34;20110;-67
2021/09/26 06:33:57;;;;;;;10.80;8.07;;;;;;;;;;4113141;34;20115;-65
2021/09/26 06:36:23;;;;;;;11.52;8.32;;;;;;;;;;4102269;34;20092;-67
2021/09/26 06:38:49;;;;;;;18.05;9.20;;;;;;;;;;4113099;34;20119;-66
2021/09/26 06:41:15;;;;;;;17.25;9.55;;;;;;;;;;4112793;34;20112;-65
2021/09/26 06:43:41;;;;;;;15.93;9.57;;;;;;;;;;4113044;34;20106;-67
2021/09/26 06:46:07;;;;;;;14.25;9.45;;;;;;;;;;4124082;34;20207;-67
2021/09/26 06:48:33;;;;;;;20.62;9.60;;;;;;;;;;4124164;34;20182;-67
2021/09/26 06:50:59;;;;;;;21.45;10.15;;;;;;;;;;4112899;34;20134;-66
2021/09/26 06:53:26;;;;;;;11.52;9.07;;;;;;;;;;4134781;34;20212;-66
2021/09/26 06:55:52;;;;;;;19.83;10.30;;;;;;;;;;4112920;34;20561;-67
2021/09/26 06:58:18;;;;;;;15.02;10.82;;;;;;;;;;4124079;34;20102;-65
2021/09/26 07:00:44;;;;;;;20.35;12.10;;;;;;;;;;4123905;34;20126;-65
2021/09/26 07:03:11;;;;;;;14.55;10.60;;;;;;;;;;4101680;34;20206;-66
2021/09/26 07:05:37;;;;;;;14.13;10.02;;;;;;;;;;4101800;34;20139;-66
2021/09/26 07:08:05;;;;;;;14.87;10.57;;;;;;;;;;4112973;34;20436;-66
2021/09/26 07:10:32;;;;;;;15.60;9.60;;;;;;;;;;4123934;34;20087;-66
2021/09/26 07:12:58;;;;;;;17.77;11.05;;;;;;;;;;4101563;34;20104;-67
2021/09/26 07:15:24;;;;;;;17.23;10.52;;;;;;;;;;4101608;34;20483;-67
2021/09/26 07:17:53;;;;;;;19.80;11.98;;;;;;;;;;4112543;34;20138;-66
2021/09/26 07:20:19;;;;;;;15.25;10.25;;;;;;;;;;4123870;34;20131;-66
2021/09/26 07:22:46;;;;;;;14.20;11.12;;;;;;;;;;4112744;34;20559;-67
2021/09/26 07:25:12;;;;;;;11.65;10.23;;;;;;;;;;4101544;34;20110;-66
2021/09/26 07:27:40;;;;;;;17.65;9.75;;;;;;;;;;4101395;34;20111;-67
2021/09/26 07:30:07;;;;;;;10.93;9.35;;;;;;;;;;4112862;34;20107;-66
2021/09/26 07:32:34;;;;;;;11.63;9.85;;;;;;;;;;4112273;34;20132;-68
2021/09/26 07:35:00;;;;;;;11.38;8.32;;;;;;;;;;4123911;34;20104;-66
2021/09/26 07:37:26;;;;;;;14.93;9.43;;;;;;;;;;4112686;34;20108;-66
2021/09/26 07:39:53;;;;;;;15.07;9.68;;;;;;;;;;4112903;34;20410;-66
2021/09/26 07:42:19;;;;;;;14.82;9.10;;;;;;;;;;4112518;34;20123;-65
2021/09/26 07:44:45;;;;;;;12.20;10.15;;;;;;;;;;4112590;34;20127;-68
2021/09/26 07:47:12;;;;;;;13.95;10.45;;;;;;;;;;4101279;34;20119;-66
2021/09/26 07:49:38;;;;;;;15.48;9.82;;;;;;;;;;4101662;34;20111;-66
2021/09/26 07:52:04;;;;;;;14.70;9.38;;;;;;;;;;4101287;34;20095;-66
2021/09/26 07:54:31;;;;;;;13.90;9.75;;;;;;;;;;4123661;34;20106;-67
2021/09/26 07:56:58;;;;;;;13.45;9.32;;;;;;;;;;4103825;34;20129;-67
2021/09/26 07:59:25;;;;;;;11.10;8.48;;;;;;;;;;4125617;34;20111;-66
2021/09/26 08:01:51;;;;;;;15.07;8.60;;;;;;;;;;4103609;34;20111;-68
2021/09/26 08:04:17;;;;;;;14.40;9.05;;;;;;;;;;4114459;34;20274;-67
2021/09/26 08:06:43;;;;;;;11.80;8.18;;;;;;;;;;4103566;34;20178;-67
2021/09/26 08:09:10;;;;;;;15.15;8.88;;;;;;;;;;4115004;34;20116;-65
2021/09/26 08:11:37;;;;;;;12.43;8.73;;;;;;;;;;4125814;34;20103;-67
2021/09/26 08:14:03;;;;;;;10.02;8.25;;;;;;;;;;4114480;34;20123;-67
2021/09/26 08:16:30;;;;;;;12.60;8.60;;;;;;;;;;4103329;34;20470;-66
2021/09/26 08:18:56;;;;;;;12.60;7.70;;;;;;;;;;4103695;34;20143;-66
2021/09/26 08:21:23;;;;;;;18.45;9.52;;;;;;;;;;4125132;34;20135;-65
2021/09/26 08:23:50;;;;;;;15.85;8.38;;;;;;;;;;4125462;34;20466;-67
2021/09/26 08:26:16;;;;;;;15.85;9.90;;;;;;;;;;4125563;34;20196;-66
2021/09/26 08:28:42;;;;;;;15.48;9.50;;;;;;;;;;4114605;34;20491;-65
2021/09/26 08:31:08;;;;;;;12.75;9.52;;;;;;;;;;4114752;34;20100;-67
2021/09/26 08:33:35;;;;;;;13.70;9.32;;;;;;;;;;4114307;34;20113;-67
2021/09/26 08:36:01;;;;;;;14.23;9.90;;;;;;;;;;4125368;34;20110;-67
2021/09/26 08:38:28;;;;;;;12.52;10.07;;;;;;;;;;4114287;34;20108;-67
2021/09/26 08:40:54;;;;;;;15.75;8.88;;;;;;;;;;4103248;34;20111;-67
2021/09/26 08:43:21;;;;;;;19.10;9.35;;;;;;;;;;4136337;34;20531;-66
2021/09/26 08:45:47;;;;;;;12.48;9.93;;;;;;;;;;4125250;34;20170;-66
2021/09/26 08:48:13;;;;;;;13.10;9.43;;;;;;;;;;4114310;34;20512;-65
2021/09/26 08:50:40;;;;;;;10.90;8.65;;;;;;;;;;4114069;34;20099;-66
2021/09/26 08:53:07;;;;;;;13.62;9.88;;;;;;;;;;4103249;34;20130;-67
2021/09/26 08:55:33;;;;;;;15.82;9.38;;;;;;;;;;4125192;34;20118;-67
2021/09/26 08:58:03;;;;;;;16.08;9.30;;;;;;;;;;4103420;34;20507;-65
2021/09/26 09:00:31;;;;;;;12.57;9.80;;;;;;;;;;4136341;34;20124;-67
2021/09/26 09:02:58;;;;;;;14.95;8.52;;;;;;;;;;4113884;34;20134;-67
2021/09/26 09:05:39;;;;;;;11.68;7.57;;;;;;;;;;4114271;34;20154;-66
2021/09/26 09:08:09;;;;;;;12.05;7.45;;;;;;;;;;4135745;34;20114;-66
2021/09/26 09:10:54;;;;;;;14.82;8.13;;;;;;;;;;4113876;34;20187;-68
2021/09/26 09:13:42;;;;;;;16.23;9.80;;;;;;;;;;4124886;34;20227;-66
2021/09/26 09:16:11;;;;;;;11.88;9.00;;;;;;;;;;4113980;34;20554;-65
2021/09/26 09:18:43;;;;;;;16.30;10.32;;;;;;;;;;4113953;34;20242;-67
2021/09/26 09:21:21;;;;;;;12.70;10.20;;;;;;;;;;4114648;34;20123;-67
2021/09/26 09:23:51;;;;;;;11.95;8.23;;;;;;;;;;4136073;34;20228;-67
2021/09/26 09:26:32;;;;;;;13.98;8.27;;;;;;;;;;4113847;34;20535;-67
2021/09/26 09:29:00;;;;;;;10.18;8.18;;;;;;;;;;4114118;34;20202;-69
2021/09/26 09:31:27;;;;;;;15.20;8.50;;;;;;;;;;4124735;34;20116;-69
2021/09/26 09:33:55;;;;;;;15.60;9.48;;;;;;;;;;4112642;34;20114;-72
2021/09/26 09:36:29;;;;;;;17.87;8.50;;;;;;;;;;4114766;34;20107;-68
2021/09/26 09:38:57;;;;;;;12.00;8.93;;;;;;;;;;4117251;34;20098;-70
2021/09/26 09:41:36;;;;;;;14.15;10.68;;;;;;;;;;4141014;34;20108;-70
2021/09/26 09:44:08;;;;;;;13.38;9.25;;;;;;;;;;4150219;34;20123;-69
2021/09/26 09:46:40;;;;;;;;;;;;;;;;;;4118092;34;20087;-66
2021/09/26 09:49:21;;;;;;;12.52;8.00;;;;;;;;;;4115797;34;20003;-68
2021/09/26 09:51:52;;;;;;;12.40;8.00;;;;;;;;;;4137699;34;20151;-65
2021/09/26 09:54:40;;;;;;;8.88;7.65;;;;;;;;;;4138087;34;20412;-68
2021/09/26 09:57:14;;;;;;;17.48;8.85;;;;;;;;;;4126771;34;20127;-67
2021/09/26 09:59:45;;;;;;;14.15;8.27;;;;;;;;;;4126550;34;20099;-68
2021/09/26 10:02:15;;;;;;;13.13;9.05;;;;;;;;;;4116197;34;20133;-66
2021/09/26 10:04:46;;;;;;;14.30;8.90;;;;;;;;;;4114716;34;20239;-66
2021/09/26 10:07:20;;;;;;;11.38;7.95;;;;;;;;;;4113687;34;20195;-66
2021/09/26 10:09:48;;;;;;;10.98;8.35;;;;;;;;;;4124480;34;20111;-67
2021/09/26 10:12:20;;;;;;;11.98;8.70;;;;;;;;;;4124253;34;20100;-66
2021/09/26 10:14:52;;;;;;;11.68;8.25;;;;;;;;;;4114370;34;20119;-66
2021/09/26 10:17:19;;;;;;;11.32;8.13;;;;;;;;;;4126363;34;20100;-67
2021/09/26 10:19:46;;;;;;;16.90;8.88;;;;;;;;;;4126753;34;20532;-66
2021/09/26 10:22:15;;;;;;;16.23;8.73;;;;;;;;;;4114429;34;20162;-67
2021/09/26 10:24:48;;;;;;;13.02;9.52;;;;;;;;;;4134629;34;20127;-66
2021/09/26 10:27:19;;;;;;;16.02;8.95;;;;;;;;;;4137368;34;20099;-66
2021/09/26 10:29:48;;;;;;;10.60;8.07;;;;;;;;;;4116176;34;20202;-66
2021/09/26 10:32:16;;;;;;;16.05;8.35;;;;;;;;;;4137378;34;20119;-69
2021/09/26 10:34:43;;;;;;;12.82;8.52;;;;;;;;;;4126497;34;20134;-68
2021/09/26 10:37:12;;;;;;;16.50;9.30;;;;;;;;;;4126609;34;20122;-69
2021/09/26 10:39:38;;;;;;;14.50;8.85;;;;;;;;;;4126686;34;20107;-68
2021/09/26 10:42:14;;;;;;;12.10;9.00;;;;;;;;;;4126138;34;20106;-68
2021/09/26 10:44:47;;;;;;;13.07;11.30;;;;;;;;;;4137639;34;20236;-68
2021/09/26 10:47:17;;;;;;;16.50;11.88;;;;;;;;;;4126451;34;20109;-69
2021/09/26 10:49:45;;;;;;;18.35;11.12;;;;;;;;;;4137320;34;20143;-69
2021/09/26 10:52:32;;;;;;;27.62;16.62;;;;;;;;;;4137444;34;20114;-68
2021/09/26 10:55:23;;;;;;;11.93;9.85;;;;;;;;;;4148673;34;20110;-68
2021/09/26 10:58:03;;;;;;;10.15;6.97;;;;;;;;;;4148614;34;20103;-69
2021/09/26 11:00:35;;;;;;;14.05;8.57;;;;;;;;;;4127517;34;20464;-69
2021/09/26 11:03:06;;;;;;;11.82;8.10;;;;;;;;;;4126687;34;20191;-66
2021/09/26 11:05:40;;;;;;;14.68;8.82;;;;;;;;;;4148542;34;20208;-67
2021/09/26 11:08:09;;;;;;;19.80;9.93;;;;;;;;;;4147633;34;20096;-66
2021/09/26 11:10:37;;;;;;;25.60;11.15;;;;;;;;;;4136858;34;20174;-67
2021/09/26 11:13:09;;;;;;;20.10;14.43;;;;;;;;;;4125541;34;20448;-67
2021/09/26 11:16:09;;;;;;;13.15;9.75;;;;;;;;;;4137117;34;20102;-67
2021/09/26 11:19:02;;;;;;;11.00;8.05;;;;;;;;;;4125793;34;20111;-67
2021/09/26 11:21:49;;;;;;;11.98;7.93;;;;;;;;;;4137236;34;20563;-66
2021/09/26 11:24:22;;;;;;;10.70;8.07;;;;;;;;;;4125924;34;20114;-67
2021/09/26 11:27:10;;;;;;;14.35;8.57;;;;;;;;;;4136919;34;20163;-66
2021/09/26 12:41:07;;;;;;;18.58;10.75;;;;;;;;;;4894108;28;20154;-64
2021/09/26 12:43:37;;;;;;;12.57;7.22;;;;;;;;;;4128970;34;20118;-66
2021/09/26 12:46:07;;;;;;;15.32;7.93;;;;;;;;;;4141172;34;20224;-66
2021/09/26 12:48:33;;;;;;;11.25;6.62;;;;;;;;;;4132028;34;20116;-67
2021/09/26 12:51:08;;;;;;;11.43;6.95;;;;;;;;;;4134089;34;20456;-68
2021/09/26 12:53:38;;;;;;;9.35;7.35;;;;;;;;;;4122138;34;20131;-69
2021/09/26 12:56:04;;;;;;;8.73;6.10;;;;;;;;;;4122342;34;20119;-68
2021/09/26 12:58:41;;;;;;;12.85;6.18;;;;;;;;;;4122579;34;20436;-68
2021/09/26 13:01:22;;;;;;;16.12;7.20;;;;;;;;;;4133366;34;20131;-68
2021/09/26 13:03:54;;;;;;;11.07;6.00;;;;;;;;;;4137399;34;20103;-67
2021/09/26 13:06:49;;;;;;;17.12;11.00;;;;;;;;;;4135764;34;20103;-67
2021/09/26 13:09:21;;;;;;;27.50;20.17;;;;;;;;;;4137055;34;20222;-67
2021/09/26 13:11:48;;;;;;;20.95;12.63;;;;;;;;;;4135810;34;20195;-68
2021/09/26 13:14:17;;;;;;;13.43;7.72;;;;;;;;;;4135721;34;20496;-68
2021/09/26 13:16:45;;;;;;;11.12;7.97;;;;;;;;;;4134470;34;20594;-67
2021/09/26 13:19:37;;;;;;;9.73;8.18;;;;;;;;;;4123947;34;20119;-68
2021/09/26 13:22:15;;;;;;;7.87;6.62;;;;;;;;;;4122170;34;20127;-72
2021/09/26 13:24:47;;;;;;;8.13;6.95;;;;;;;;;;4123839;34;20111;-72
2021/09/26 13:27:37;;;;;;;7.12;6.18;;;;;;;;;;4122378;34;20524;-72
2021/09/26 13:30:17;;;;;;;7.03;4.53;;;;;;;;;;4123872;34;20143;-72
2021/09/26 13:32:52;;;;;;;8.68;6.45;;;;;;;;;;4122317;34;20131;-72
2021/09/26 13:35:20;;;;;;;7.93;5.72;;;;;;;;;;4122450;34;20219;-72
2021/09/26 13:38:24;;;;;;;7.12;6.43;;;;;;;;;;4114523;34;20591;-71
2021/09/26 13:41:06;;;;;;;8.52;5.90;;;;;;;;;;4123758;34;20506;-72
2021/09/26 13:43:34;;;;;;;7.70;6.10;;;;;;;;;;4123382;34;20209;-73
2021/09/26 13:46:01;;;;;;;8.25;6.53;;;;;;;;;;4122255;34;20096;-72
2021/09/26 13:48:27;;;;;;;6.90;5.62;;;;;;;;;;4122106;34;20192;-73
2021/09/26 13:50:54;;;;;;;8.10;6.18;;;;;;;;;;4123623;34;20092;-73
2021/09/26 13:53:21;;;;;;;10.40;6.10;;;;;;;;;;4110701;34;20122;-72
2021/09/26 13:55:47;;;;;;;8.52;5.78;;;;;;;;;;4122019;34;20567;-73
2021/09/26 13:58:13;;;;;;;9.68;6.20;;;;;;;;;;4123296;34;20120;-73
2021/09/26 14:00:39;;;;;;;11.90;7.72;;;;;;;;;;4123434;34;20127;-72
2021/09/26 14:03:05;;;;;;;9.38;6.50;;;;;;;;;;4123167;34;20215;-72
2021/09/26 14:05:31;;;;;;;9.18;6.87;;;;;;;;;;4110901;34;20580;-72
2021/09/26 14:07:57;;;;;;;17.90;10.50;;;;;;;;;;4121616;34;20146;-71
2021/09/26 14:10:23;;;;;;;12.90;7.93;;;;;;;;;;4123261;34;20152;-71
2021/09/26 14:12:49;;;;;;;7.10;5.28;;;;;;;;;;4121926;34;20096;-72
2021/09/26 14:15:15;;;;;;;10.73;6.00;;;;;;;;;;4110833;34;20218;-72
2021/09/26 14:17:42;;;;;;;8.35;5.90;;;;;;;;;;4132504;34;20512;-72
2021/09/26 14:20:08;;;;;;;11.05;6.75;;;;;;;;;;4135724;34;20123;-71
2021/09/26 14:22:35;;;;;;;11.18;5.68;;;;;;;;;;4136792;34;20182;-71
2021/09/26 14:25:04;;;;;;;11.63;6.82;;;;;;;;;;4135173;34;20122;-72
2021/09/26 14:27:30;;;;;;;13.07;6.97;;;;;;;;;;4136846;34;20108;-73
2021/09/26 14:29:55;;;;;;;7.90;7.07;;;;;;;;;;4136345;34;20104;-73
2021/09/26 14:32:22;;;;;;;8.23;7.22;;;;;;;;;;4126521;34;20106;-72
2021/09/26 14:34:48;;;;;;;15.85;11.93;;;;;;;;;;4122762;34;20131;-71
2021/09/26 14:37:14;;;;;;;11.00;7.82;;;;;;;;;;4123078;34;20197;-70
2021/09/26 14:39:41;;;;;;;8.38;6.90;;;;;;;;;;4123175;34;20126;-72
2021/09/26 14:42:07;;;;;;;11.02;7.85;;;;;;;;;;4120954;34;20127;-72
2021/09/26 14:44:33;;;;;;;9.90;7.07;;;;;;;;;;4109896;34;20209;-72
2021/09/26 14:46:59;;;;;;;8.68;6.32;;;;;;;;;;4109552;34;20136;-72
2021/09/26 14:49:25;;;;;;;8.18;7.05;;;;;;;;;;4109637;34;20187;-72
2021/09/26 14:51:52;;;;;;;10.13;5.40;;;;;;;;;;4097455;34;20124;-71
2021/09/26 14:54:19;;;;;;;6.95;5.15;;;;;;;;;;4103164;34;20281;-72
2021/09/26 14:56:45;;;;;;;5.82;5.22;;;;;;;;;;4122797;34;20131;-72
2021/09/26 14:59:13;;;;;;;7.78;4.82;;;;;;;;;;4099339;34;20190;-72
2021/09/26 15:01:39;;;;;;;6.62;5.18;;;;;;;;;;4110727;34;20547;-71
2021/09/26 15:04:06;;;;;;;5.80;4.45;;;;;;;;;;4109560;34;20478;-72
2021/09/26 15:06:32;;;;;;;6.68;5.37;;;;;;;;;;4122617;34;20159;-73
2021/09/26 15:08:58;;;;;;;4.97;3.70;;;;;;;;;;4110293;34;20511;-74
2021/09/26 15:11:26;;;;;;;7.40;4.60;;;;;;;;;;4122617;34;20132;-72
2021/09/26 15:13:52;;;;;;;5.22;4.72;;;;;;;;;;4122580;34;20217;-72
2021/09/26 15:16:17;;;;;;;7.60;5.00;;;;;;;;;;4110186;34;20143;-73
2021/09/26 15:18:43;;;;;;;8.05;5.97;;;;;;;;;;4122647;34;20178;-72
2021/09/26 15:21:10;;;;;;;10.80;7.35;;;;;;;;;;4122684;34;20127;-73
2021/09/26 15:23:36;;;;;;;13.23;8.98;;;;;;;;;;4122583;34;20120;-75
2021/09/26 15:26:02;;;;;;;16.23;12.02;;;;;;;;;;4122681;34;20122;-72
2021/09/26 15:28:31;;;;;;;19.37;13.95;;;;;;;;;;4110213;34;20175;-70
2021/09/26 15:30:59;;;;;;;16.70;14.02;;;;;;;;;;4105668;34;20143;-70
2021/09/26 15:33:26;;;;;;;16.62;13.77;;;;;;;;;;4108086;34;20183;-65
2021/09/26 15:35:54;;;;;;;16.58;13.18;;;;;;;;;;4108907;34;20123;-65
2021/09/26 15:38:20;;;;;;;16.15;12.50;;;;;;;;;;4109005;34;20216;-65
2021/09/26 15:40:47;;;;;;;16.85;11.15;;;;;;;;;;4109056;34;20120;-66
2021/09/26 15:43:18;;;;;;;15.30;12.27;;;;;;;;;;4119563;34;20108;-66
2021/09/26 15:45:46;;;;;;;16.25;11.70;;;;;;;;;;4122307;34;20143;-66
2021/09/26 15:48:12;;;;;;;18.83;12.55;;;;;;;;;;4121956;34;20123;-66
2021/09/26 15:50:40;;;;;;;12.68;9.98;;;;;;;;;;4133237;34;20116;-71
2021/09/26 15:53:07;;;;;;;15.80;9.35;;;;;;;;;;4109967;34;20228;-73
2021/09/26 15:55:33;;;;;;;10.00;8.07;;;;;;;;;;4109810;34;20439;-73
2021/09/26 15:58:00;;;;;;;9.00;7.60;;;;;;;;;;4122444;34;20546;-73
2021/09/26 16:00:27;;;;;;;7.28;6.03;;;;;;;;;;4121610;34;20107;-73
2021/09/26 16:02:53;;;;;;;7.05;5.18;;;;;;;;;;4122049;34;20501;-73
2021/09/26 16:05:20;;;;;;;5.70;4.18;;;;;;;;;;4122132;34;20127;-72
2021/09/26 16:07:46;;;;;;;18.98;15.40;;;;;;;;;;4120748;34;20615;-72
2021/09/26 16:10:12;;;;;;;6.10;4.87;;;;;;;;;;4121835;34;20547;-60
2021/09/26 16:12:39;;;;;;;10.15;4.90;;;;;;;;;;4121681;34;20591;-62